Time;durP1;ratioP1;P1;durP2;ratioP2;P2;SDS_P1;SDS_P2;PMS_P1;PMS_P2;Temp;Humidity;BMP_temperature;BMP_pressure;BME280_temperature;BME280_humidity;BME280_pressure;Samples;Min_cycle;Max_cycle;Signal;HPM_P1;HPM_P2
2022/07/06 00:02:55;;;;;;;2.75;2.50;;;23.90;98.10;;;;;;6309001;27;84055;-67
2022/07/06 00:05:59;;;;;;;3.60;2.33;;;23.90;98.40;;;;;;6309076;27;85622;-68
2022/07/06 00:09:01;;;;;;;2.38;2.17;;;23.90;98.50;;;;;;6298025;27;83412;-67
2022/07/06 00:12:03;;;;;;;2.47;2.28;;;23.90;98.80;;;;;;6306793;27;84464;-67
2022/07/06 00:15:07;;;;;;;2.83;2.40;;;23.90;99.50;;;;;;6307623;27;84055;-67
2022/07/06 00:18:09;;;;;;;2.38;2.17;;;23.90;99.60;;;;;;6288208;27;84874;-68
2022/07/06 00:21:12;;;;;;;2.75;2.55;;;23.90;99.90;;;;;;6305277;27;83867;-68
2022/07/06 00:24:14;;;;;;;3.05;2.75;;;23.90;98.40;;;;;;6292689;27;83041;-68
2022/07/06 00:27:16;;;;;;;2.50;2.30;;;23.90;98.40;;;;;;6305833;27;82919;-68
2022/07/06 00:30:18;;;;;;;2.60;2.20;;;23.90;98.00;;;;;;6298736;27;84143;-67
2022/07/06 00:33:21;;;;;;;3.25;2.40;;;23.90;98.30;;;;;;6306534;27;82980;-68
2022/07/06 00:36:24;;;;;;;2.72;2.30;;;23.90;97.70;;;;;;6308029;27;84398;-68
2022/07/06 00:39:29;;;;;;;3.03;2.47;;;23.90;97.60;;;;;;6296011;27;83331;-68
2022/07/06 00:42:30;;;;;;;3.25;2.40;;;24.00;98.00;;;;;;6296286;27;84600;-68
2022/07/06 00:45:33;;;;;;;2.50;2.30;;;23.90;97.80;;;;;;6308316;27;83990;-68
2022/07/06 00:48:34;;;;;;;2.72;2.20;;;23.90;97.70;;;;;;6307705;27;83865;-67
2022/07/06 00:51:39;;;;;;;2.50;2.30;;;23.90;97.60;;;;;;6296795;27;84231;-68
2022/07/06 00:54:43;;;;;;;2.60;2.40;;;23.90;97.40;;;;;;6307415;27;83898;-67
2022/07/06 00:57:46;;;;;;;2.55;2.35;;;23.90;98.00;;;;;;6299655;27;84199;-68
2022/07/06 01:00:48;;;;;;;3.17;2.72;;;23.90;98.20;;;;;;6295310;27;84056;-68
2022/07/06 01:03:50;;;;;;;2.70;2.45;;;23.90;98.80;;;;;;6301030;27;84072;-68
2022/07/06 01:06:54;;;;;;;2.55;2.35;;;23.80;99.60;;;;;;6312592;27;84029;-68
2022/07/06 01:09:56;;;;;;;2.10;2.00;;;23.90;99.90;;;;;;6311127;27;83368;-68
2022/07/06 01:12:59;;;;;;;3.28;2.42;;;23.90;99.90;;;;;;6310389;27;82888;-67
2022/07/06 01:16:01;;;;;;;2.50;2.30;;;23.90;99.90;;;;;;6312483;27;82927;-67
2022/07/06 01:19:03;;;;;;;2.40;2.20;;;23.90;99.90;;;;;;6297720;27;84946;-68
2022/07/06 01:22:06;;;;;;;2.97;2.67;;;23.90;99.90;;;;;;6302640;27;84519;-68
2022/07/06 01:25:09;;;;;;;2.33;2.13;;;23.90;99.90;;;;;;6291463;27;82860;-68
2022/07/06 01:28:11;;;;;;;2.70;2.50;;;23.90;99.90;;;;;;6310973;27;84072;-67
2022/07/06 01:31:18;;;;;;;2.70;2.50;;;23.90;99.40;;;;;;6299332;27;83967;-68
2022/07/06 01:34:20;;;;;;;2.33;2.13;;;23.90;98.20;;;;;;6311449;27;84044;-67
2022/07/06 01:37:24;;;;;;;2.33;2.10;;;23.90;98.00;;;;;;6306294;27;84054;-68
2022/07/06 01:40:26;;;;;;;2.40;2.20;;;23.80;97.80;;;;;;6299561;27;83889;-67
2022/07/06 01:43:28;;;;;;;2.47;2.28;;;23.80;98.10;;;;;;6311782;27;84012;-67
2022/07/06 01:46:30;;;;;;;2.33;2.13;;;23.90;98.70;;;;;;6311421;27;83992;-67
2022/07/06 01:49:32;;;;;;;2.30;2.10;;;23.90;99.10;;;;;;6299189;27;84982;-67
2022/07/06 01:52:35;;;;;;;2.67;2.40;;;23.90;99.00;;;;;;6310545;27;82929;-68
2022/07/06 01:55:37;;;;;;;2.10;1.90;;;23.80;99.70;;;;;;6309967;27;84072;-68
2022/07/06 01:58:40;;;;;;;2.38;2.17;;;23.90;99.70;;;;;;6310913;27;83990;-68
2022/07/06 02:01:42;;;;;;;2.80;2.33;;;23.90;99.90;;;;;;6289289;27;84285;-68
2022/07/06 02:04:44;;;;;;;2.53;2.33;;;23.90;99.80;;;;;;6302317;27;84005;-67
2022/07/06 02:07:47;;;;;;;2.30;2.10;;;23.90;99.90;;;;;;6296773;27;84086;-67
2022/07/06 02:10:49;;;;;;;3.15;2.45;;;23.90;99.90;;;;;;6298447;27;83395;-67
2022/07/06 02:13:51;;;;;;;2.63;2.20;;;23.90;99.90;;;;;;6303413;27;84378;-67
2022/07/06 02:16:53;;;;;;;2.65;2.45;;;23.80;99.80;;;;;;6306756;27;84209;-67
2022/07/06 02:19:55;;;;;;;2.55;2.35;;;23.90;99.80;;;;;;6296564;27;85492;-68
2022/07/06 02:22:59;;;;;;;2.40;2.20;;;23.80;99.90;;;;;;6300810;27;83227;-68
2022/07/06 02:26:01;;;;;;;2.60;2.40;;;23.90;99.90;;;;;;6307584;27;82907;-68
2022/07/06 02:29:03;;;;;;;2.40;2.20;;;23.80;99.80;;;;;;6292905;27;84082;-67
2022/07/06 02:32:05;;;;;;;2.50;2.30;;;23.80;99.60;;;;;;6303352;27;83870;-68
2022/07/06 02:35:07;;;;;;;3.08;2.40;;;23.90;99.90;;;;;;6304246;27;84171;-68
2022/07/06 02:38:11;;;;;;;2.30;2.10;;;23.80;99.90;;;;;;6301204;27;82892;-67
2022/07/06 02:41:13;;;;;;;2.88;2.40;;;23.80;99.90;;;;;;6297411;27;82914;-68
2022/07/06 02:44:15;;;;;;;2.67;2.15;;;23.90;99.90;;;;;;6307078;27;86261;-68
2022/07/06 02:47:17;;;;;;;2.47;2.22;;;23.80;99.90;;;;;;6295764;27;82944;-68
2022/07/06 02:50:19;;;;;;;2.42;2.22;;;23.80;99.90;;;;;;6308879;27;84984;-68
2022/07/06 02:53:22;;;;;;;2.60;2.40;;;23.80;99.90;;;;;;6302056;27;84002;-68
2022/07/06 02:56:24;;;;;;;2.40;2.20;;;23.80;99.90;;;;;;6309832;27;84277;-68
2022/07/06 02:59:26;;;;;;;2.30;2.10;;;23.80;99.90;;;;;;6308668;27;84183;-68
2022/07/06 03:02:28;;;;;;;3.00;2.40;;;23.80;99.80;;;;;;6298383;27;83021;-67
2022/07/06 03:05:30;;;;;;;2.40;2.20;;;23.80;99.40;;;;;;6307370;27;84937;-67
2022/07/06 03:08:34;;;;;;;2.53;2.33;;;23.80;99.40;;;;;;6295632;27;84246;-68
2022/07/06 03:11:36;;;;;;;2.58;2.38;;;23.80;99.80;;;;;;6309639;27;83328;-68
2022/07/06 03:14:38;;;;;;;2.15;2.03;;;23.90;99.90;;;;;;6308573;27;84327;-67
2022/07/06 03:17:40;;;;;;;3.05;2.20;;;23.80;99.80;;;;;;6309388;27;84035;-67
2022/07/06 03:20:42;;;;;;;2.33;2.08;;;23.80;99.90;;;;;;6306418;27;84988;-67
2022/07/06 03:23:45;;;;;;;2.30;2.10;;;23.80;99.90;;;;;;6298278;27;84055;-67
2022/07/06 03:26:47;;;;;;;2.30;2.10;;;23.80;99.90;;;;;;6310416;27;83987;-67
2022/07/06 03:29:50;;;;;;;2.42;2.05;;;23.80;99.90;;;;;;6295637;27;83997;-67
2022/07/06 03:32:51;;;;;;;2.30;2.10;;;23.80;99.90;;;;;;6288909;27;84057;-67
2022/07/06 03:35:53;;;;;;;2.47;2.28;;;23.80;99.90;;;;;;6303719;27;84032;-66
2022/07/06 03:38:57;;;;;;;3.22;2.20;;;23.80;99.90;;;;;;6302464;27;84112;-67
2022/07/06 03:41:59;;;;;;;3.15;2.10;;;23.80;99.70;;;;;;6309503;27;83263;-67
2022/07/06 03:45:01;;;;;;;2.60;2.40;;;23.80;99.90;;;;;;6294802;27;84321;-67
2022/07/06 03:48:03;;;;;;;2.60;2.40;;;23.80;99.80;;;;;;6308484;27;84119;-67
2022/07/06 03:51:06;;;;;;;2.40;2.20;;;23.80;99.80;;;;;;6308900;27;84933;-67
2022/07/06 03:54:09;;;;;;;2.40;2.20;;;23.80;99.90;;;;;;6308965;27;84105;-67
2022/07/06 03:57:13;;;;;;;2.70;2.38;;;23.80;99.90;;;;;;6308719;27;83967;-68
2022/07/06 04:00:15;;;;;;;3.20;2.60;;;23.80;99.90;;;;;;6307989;27;83096;-67
2022/07/06 04:03:17;;;;;;;2.67;2.45;;;23.80;99.90;;;;;;6303836;27;84494;-67
2022/07/06 04:06:19;;;;;;;2.97;2.67;;;23.80;99.80;;;;;;6300381;27;84105;-67
2022/07/06 04:09:23;;;;;;;2.60;2.40;;;23.80;99.90;;;;;;6307599;27;84293;-67
2022/07/06 04:12:25;;;;;;;2.70;2.25;;;23.70;99.90;;;;;;6305282;27;82132;-68
2022/07/06 04:15:27;;;;;;;2.60;2.40;;;23.80;99.90;;;;;;6307065;27;84101;-67
2022/07/06 04:18:29;;;;;;;2.60;2.40;;;23.80;99.90;;;;;;6308999;27;84282;-67
2022/07/06 04:21:31;;;;;;;4.07;2.58;;;23.80;99.90;;;;;;6302448;27;85036;-67
2022/07/06 04:24:35;;;;;;;2.75;2.55;;;23.80;99.40;;;;;;6307076;27;82875;-68
2022/07/06 04:27:37;;;;;;;2.75;2.55;;;23.80;99.20;;;;;;6304515;27;83985;-67
2022/07/06 04:30:39;;;;;;;2.95;2.65;;;23.70;98.90;;;;;;6295919;27;83993;-67
2022/07/06 04:33:41;;;;;;;4.00;2.50;;;23.80;98.60;;;;;;6285152;27;83997;-67
2022/07/06 04:36:43;;;;;;;3.20;2.47;;;23.70;98.60;;;;;;6310702;27;84071;-67
2022/07/06 04:39:46;;;;;;;3.75;2.70;;;23.80;98.70;;;;;;6313589;27;84043;-67
2022/07/06 04:42:48;;;;;;;2.88;2.28;;;23.80;98.30;;;;;;6299562;27;83356;-67
2022/07/06 04:45:50;;;;;;;2.78;2.58;;;23.80;98.50;;;;;;6299475;27;84156;-67
2022/07/06 04:48:52;;;;;;;3.55;2.40;;;23.70;98.30;;;;;;6311975;27;84266;-67
2022/07/06 04:51:54;;;;;;;2.50;2.30;;;23.70;98.30;;;;;;6311843;27;84968;-67
2022/07/06 04:54:58;;;;;;;2.85;2.45;;;23.80;98.50;;;;;;6307842;27;84050;-67
2022/07/06 04:58:00;;;;;;;3.17;2.50;;;23.80;98.80;;;;;;6303132;27;83945;-67
2022/07/06 05:01:02;;;;;;;3.05;2.47;;;23.80;98.80;;;;;;6309873;27;82964;-67
2022/07/06 05:04:04;;;;;;;2.55;2.35;;;23.80;99.10;;;;;;6298739;27;85511;-67
2022/07/06 05:07:06;;;;;;;2.92;2.10;;;23.80;99.30;;;;;;6310900;27;84004;-67
2022/07/06 05:10:11;;;;;;;2.63;2.42;;;23.80;99.20;;;;;;6310944;27;84008;-67
2022/07/06 05:13:13;;;;;;;2.40;2.20;;;23.90;99.20;;;;;;6306646;27;83312;-67
2022/07/06 05:16:15;;;;;;;2.53;2.33;;;23.90;98.90;;;;;;6303509;27;82986;-67
2022/07/06 05:19:17;;;;;;;2.60;2.40;;;23.90;98.30;;;;;;6311075;27;84006;-67
2022/07/06 05:22:20;;;;;;;2.65;2.45;;;23.90;98.00;;;;;;6310835;27;84878;-67
2022/07/06 05:25:23;;;;;;;2.50;2.30;;;23.90;98.00;;;;;;6311404;27;84076;-68
2022/07/06 05:28:25;;;;;;;2.08;1.90;;;23.90;98.60;;;;;;6289578;27;84012;-67
2022/07/06 05:31:27;;;;;;;3.10;2.20;;;23.90;98.50;;;;;;6311074;27;83938;-68
2022/07/06 05:34:29;;;;;;;2.40;2.20;;;23.90;98.60;;;;;;6300534;27;84271;-67
2022/07/06 05:37:31;;;;;;;2.15;2.00;;;23.90;98.50;;;;;;6291998;27;84061;-67
2022/07/06 05:40:35;;;;;;;8.23;2.20;;;23.90;98.60;;;;;;6309258;27;84540;-67
2022/07/06 05:43:37;;;;;;;2.58;1.95;;;23.90;98.60;;;;;;6299460;27;83364;-67
2022/07/06 05:46:39;;;;;;;2.30;2.10;;;23.90;98.70;;;;;;6309751;27;82872;-67
2022/07/06 05:53:04;;;;;;;2.05;1.88;;;23.90;99.20;;;;;;6308922;27;82873;-68
2022/07/06 05:56:07;;;;;;;2.50;2.00;;;23.90;99.40;;;;;;6309835;27;84100;-68
2022/07/06 05:59:09;;;;;;;2.55;2.08;;;23.90;98.90;;;;;;6311445;27;84000;-68
2022/07/06 06:02:11;;;;;;;3.03;2.30;;;23.90;98.40;;;;;;6311124;27;84511;-68
2022/07/06 06:05:15;;;;;;;2.10;1.90;;;23.90;98.10;;;;;;6309113;27;84136;-67
2022/07/06 06:08:17;;;;;;;2.28;2.00;;;23.90;98.10;;;;;;6309216;27;84003;-68
2022/07/06 06:11:20;;;;;;;2.03;1.88;;;23.90;98.20;;;;;;6310337;27;82762;-68
2022/07/06 06:14:22;;;;;;;3.05;1.83;;;23.90;98.50;;;;;;6302317;27;83330;-68
2022/07/06 06:17:24;;;;;;;2.13;1.92;;;23.90;98.20;;;;;;6310236;27;82971;-67
2022/07/06 06:20:27;;;;;;;2.10;1.90;;;23.90;98.20;;;;;;6311036;27;84153;-68
2022/07/06 06:23:29;;;;;;;2.40;2.00;;;23.90;96.80;;;;;;6309294;27;85003;-67
2022/07/06 06:26:32;;;;;;;3.13;2.08;;;23.90;96.70;;;;;;6308110;27;84139;-67
2022/07/06 06:29:34;;;;;;;2.00;1.90;;;23.90;95.60;;;;;;6306412;27;85825;-67
2022/07/06 06:32:36;;;;;;;2.72;1.80;;;23.90;95.60;;;;;;6307325;27;84148;-67
2022/07/06 06:35:39;;;;;;;2.10;1.90;;;23.90;95.70;;;;;;6307435;27;84125;-67
2022/07/06 06:38:41;;;;;;;2.67;2.00;;;23.90;95.70;;;;;;6301152;27;84319;-67
2022/07/06 06:41:45;;;;;;;2.70;2.40;;;23.90;95.60;;;;;;6309616;27;84082;-67
2022/07/06 06:44:47;;;;;;;3.25;2.20;;;23.90;95.30;;;;;;6309665;27;83244;-67
2022/07/06 06:47:49;;;;;;;2.25;1.85;;;23.90;94.40;;;;;;6310946;27;84315;-68
2022/07/06 06:50:51;;;;;;;3.03;2.22;;;23.90;93.40;;;;;;6307597;27;83516;-68
2022/07/06 06:53:53;;;;;;;2.28;2.08;;;23.90;93.20;;;;;;6307388;27;84911;-68
2022/07/06 06:56:56;;;;;;;2.40;2.20;;;23.90;93.60;;;;;;6308288;27;84041;-67
2022/07/06 06:59:58;;;;;;;2.67;2.08;;;23.90;93.70;;;;;;6310001;27;84025;-68
2022/07/06 07:03:00;;;;;;;2.10;1.90;;;23.90;93.90;;;;;;6308365;27;84220;-67
2022/07/06 07:06:02;;;;;;;5.18;2.38;;;23.90;93.90;;;;;;6308653;27;84036;-67
2022/07/06 07:09:05;;;;;;;3.22;2.13;;;23.90;94.10;;;;;;6295986;27;84056;-68
2022/07/06 07:12:10;;;;;;;2.17;1.95;;;23.90;93.80;;;;;;6309338;27;83920;-68
2022/07/06 07:15:12;;;;;;;1.90;1.80;;;23.90;93.90;;;;;;6310284;27;83054;-67
2022/07/06 07:18:14;;;;;;;2.30;2.05;;;23.90;94.20;;;;;;6309095;27;83928;-68
2022/07/06 07:21:16;;;;;;;2.10;1.90;;;23.90;94.00;;;;;;6309501;27;84311;-68
2022/07/06 07:24:18;;;;;;;2.40;1.90;;;23.90;94.00;;;;;;6308287;27;84950;-67
2022/07/06 07:27:22;;;;;;;2.72;2.25;;;23.90;93.80;;;;;;6307679;27;84084;-67
2022/07/06 07:30:24;;;;;;;2.28;2.08;;;23.90;94.00;;;;;;6305029;27;84064;-67
2022/07/06 07:33:26;;;;;;;3.03;2.10;;;23.90;93.90;;;;;;6303969;27;83938;-68
2022/07/06 07:36:28;;;;;;;2.50;2.00;;;23.90;93.70;;;;;;6295082;27;84019;-67
2022/07/06 07:39:30;;;;;;;2.10;1.90;;;23.90;93.80;;;;;;6307579;27;83953;-67
2022/07/06 07:42:33;;;;;;;3.17;2.20;;;23.90;93.40;;;;;;6307895;27;84060;-68
2022/07/06 07:45:35;;;;;;;2.95;2.10;;;23.90;93.40;;;;;;6308989;27;83234;-68
2022/07/06 07:48:37;;;;;;;2.45;2.03;;;23.90;93.70;;;;;;6302700;27;84070;-68
2022/07/06 07:51:41;;;;;;;2.47;2.17;;;23.90;94.00;;;;;;6299652;27;83017;-68
2022/07/06 07:54:43;;;;;;;4.35;2.70;;;23.90;93.70;;;;;;6303674;27;84614;-68
2022/07/06 07:57:46;;;;;;;3.70;2.30;;;23.90;93.70;;;;;;6297813;27;84201;-68
2022/07/06 08:00:48;;;;;;;3.00;2.00;;;23.80;93.40;;;;;;6308958;27;84117;-68
2022/07/06 08:03:50;;;;;;;2.20;2.00;;;23.90;93.70;;;;;;6307123;27;82988;-68
2022/07/06 08:06:52;;;;;;;2.95;2.10;;;23.80;93.50;;;;;;6307294;27;83985;-68
2022/07/06 08:09:54;;;;;;;3.00;2.17;;;23.90;93.60;;;;;;6310733;27;84332;-67
2022/07/06 08:12:58;;;;;;;2.47;2.15;;;23.90;94.00;;;;;;6309205;27;84055;-67
2022/07/06 08:16:00;;;;;;;3.55;2.30;;;23.90;93.40;;;;;;6305905;27;83325;-68
2022/07/06 08:19:02;;;;;;;3.00;2.30;;;23.90;93.60;;;;;;6311169;27;84442;-68
2022/07/06 08:22:06;;;;;;;2.28;2.10;;;23.90;93.80;;;;;;6313519;27;84268;-68
2022/07/06 08:25:09;;;;;;;3.28;2.15;;;23.90;94.20;;;;;;6313245;27;84886;-68
2022/07/06 08:28:13;;;;;;;2.20;2.00;;;23.90;94.60;;;;;;6308002;27;84405;-67
2022/07/06 08:31:15;;;;;;;2.00;1.90;;;23.90;94.70;;;;;;6304106;27;84068;-68
2022/07/06 08:34:17;;;;;;;2.25;2.05;;;23.90;94.80;;;;;;6312874;27;84160;-68
2022/07/06 08:37:19;;;;;;;2.97;2.00;;;23.90;94.60;;;;;;6300042;27;84016;-67
2022/07/06 08:40:21;;;;;;;2.25;2.00;;;23.80;94.50;;;;;;6311615;27;84441;-68
2022/07/06 08:43:27;;;;;;;3.78;2.45;;;23.90;94.40;;;;;;6312707;27;84016;-68
2022/07/06 08:46:29;;;;;;;3.75;2.30;;;23.90;94.60;;;;;;6299191;27;83225;-68
2022/07/06 08:49:33;;;;;;;2.25;2.05;;;23.90;94.80;;;;;;6313211;27;83919;-67
2022/07/06 08:52:35;;;;;;;2.92;2.20;;;23.90;94.50;;;;;;6311531;27;84117;-68
2022/07/06 08:55:38;;;;;;;2.20;2.00;;;23.90;94.20;;;;;;6302218;27;84142;-68
2022/07/06 08:58:42;;;;;;;2.45;2.10;;;23.90;94.80;;;;;;6294806;27;82856;-68
2022/07/06 09:01:45;;;;;;;2.42;2.22;;;23.90;94.50;;;;;;6312576;27;84288;-68
2022/07/06 09:04:50;;;;;;;2.78;2.05;;;23.90;94.80;;;;;;6311644;27;83930;-68
2022/07/06 09:07:53;;;;;;;3.35;2.20;;;23.90;94.70;;;;;;6311495;27;84003;-68
2022/07/06 09:10:55;;;;;;;4.32;2.42;;;23.90;94.30;;;;;;6309527;27;84032;-68
2022/07/06 09:13:59;;;;;;;2.65;2.20;;;23.90;94.80;;;;;;6290428;27;84112;-68
2022/07/06 09:17:04;;;;;;;3.65;2.35;;;23.90;95.10;;;;;;6311906;27;83440;-67
2022/07/06 09:20:09;;;;;;;2.78;2.30;;;23.90;94.60;;;;;;6310522;27;84039;-68
2022/07/06 09:23:16;;;;;;;2.50;2.08;;;23.90;94.50;;;;;;6312717;27;83938;-68
2022/07/06 09:26:18;;;;;;;2.30;2.10;;;23.90;94.90;;;;;;6309528;27;84936;-67
2022/07/06 09:29:28;;;;;;;2.65;2.40;;;23.90;95.40;;;;;;6307620;27;84128;-67
2022/07/06 09:32:30;;;;;;;3.50;2.45;;;23.90;95.80;;;;;;6300811;27;84072;-68
2022/07/06 09:35:37;;;;;;;3.65;2.50;;;23.90;96.20;;;;;;6309122;27;84326;-68
2022/07/06 09:38:39;;;;;;;2.42;2.10;;;23.90;95.80;;;;;;6301429;27;84485;-67
2022/07/06 09:41:41;;;;;;;2.65;2.20;;;23.90;96.20;;;;;;6309740;27;83954;-68
2022/07/06 09:44:44;;;;;;;3.08;2.25;;;23.90;96.40;;;;;;6311206;27;83981;-68
2022/07/06 09:47:48;;;;;;;3.03;2.30;;;23.90;96.40;;;;;;6312571;27;83267;-68
2022/07/06 09:50:52;;;;;;;3.28;2.33;;;23.90;95.80;;;;;;6309758;27;84160;-68
2022/07/06 09:53:58;;;;;;;3.28;2.03;;;23.90;95.80;;;;;;6310264;27;84197;-68
2022/07/06 09:57:00;;;;;;;2.58;1.92;;;23.90;96.00;;;;;;6308727;27;85023;-67
2022/07/06 10:00:07;;;;;;;2.47;2.13;;;23.90;95.60;;;;;;6310596;27;84173;-68
2022/07/06 10:03:10;;;;;;;3.30;1.98;;;23.90;95.50;;;;;;6311154;27;83074;-68
2022/07/06 10:06:13;;;;;;;2.53;2.30;;;23.90;94.50;;;;;;6309988;27;82663;-68
2022/07/06 10:09:15;;;;;;;3.25;2.58;;;23.90;93.60;;;;;;6310073;27;84010;-68
2022/07/06 10:12:20;;;;;;;2.35;2.15;;;23.90;94.20;;;;;;6311109;27;84098;-68
2022/07/06 10:15:25;;;;;;;2.97;2.10;;;23.90;94.20;;;;;;6310766;27;84099;-68
2022/07/06 10:18:28;;;;;;;2.40;2.20;;;23.90;94.10;;;;;;6309394;27;82030;-67
2022/07/06 10:21:30;;;;;;;2.78;2.10;;;23.90;93.90;;;;;;6303160;27;84487;-67
2022/07/06 10:24:39;;;;;;;2.67;2.22;;;23.90;93.60;;;;;;6305938;27;84179;-67
2022/07/06 10:27:41;;;;;;;2.10;2.00;;;23.90;94.10;;;;;;6307099;27;85163;-67
2022/07/06 10:30:46;;;;;;;2.45;2.00;;;23.90;94.00;;;;;;6308684;27;84120;-67
2022/07/06 10:33:49;;;;;;;3.00;2.15;;;23.90;93.40;;;;;;6309988;27;84150;-67
2022/07/06 10:36:52;;;;;;;6.18;2.78;;;23.90;93.20;;;;;;6296488;27;84046;-67
2022/07/06 10:43:15;;;;;;;2.92;2.30;;;23.90;93.90;;;;;;6299672;27;82279;-67
2022/07/06 10:46:20;;;;;;;2.38;2.10;;;23.90;93.90;;;;;;6310913;27;84109;-67
2022/07/06 10:49:23;;;;;;;2.33;2.10;;;23.90;93.80;;;;;;6309838;27;83830;-67
2022/07/06 10:52:45;;;;;;;2.83;2.08;;;23.90;93.80;;;;;;6309122;27;83983;-67
2022/07/06 10:55:50;;;;;;;2.83;2.30;;;23.90;93.90;;;;;;6309188;27;84078;-67
2022/07/06 10:58:53;;;;;;;3.60;2.22;;;23.90;92.20;;;;;;6308761;27;85429;-66
2022/07/06 11:05:43;;;;;;;3.20;2.13;;;23.90;91.90;;;;;;6284861;27;80286;-66
2022/07/06 11:08:56;;;;;;;2.60;2.25;;;23.90;92.60;;;;;;6279821;27;81409;-67
2022/07/06 11:11:58;;;;;;;2.20;1.98;;;23.90;92.40;;;;;;6280481;27;82376;-67
2022/07/06 11:15:02;;;;;;;2.40;2.20;;;24.00;92.70;;;;;;6280129;27;82021;-67
2022/07/06 11:18:12;;;;;;;2.30;2.10;;;23.90;93.00;;;;;;6280243;27;82319;-68
2022/07/06 11:21:23;;;;;;;2.47;2.10;;;23.90;93.20;;;;;;6281067;27;82289;-68
2022/07/06 11:24:27;;;;;;;2.10;1.90;;;23.90;93.10;;;;;;6278286;27;81141;-68
2022/07/06 11:27:30;;;;;;;3.65;2.38;;;23.90;93.20;;;;;;6276258;27;82250;-67
2022/07/06 11:30:33;;;;;;;2.65;2.17;;;23.90;92.70;;;;;;6272884;27;82249;-67
2022/07/06 11:33:35;;;;;;;2.35;2.15;;;23.90;92.70;;;;;;6279689;27;81227;-68
2022/07/06 11:36:40;;;;;;;2.97;2.10;;;23.90;92.80;;;;;;6279384;27;82340;-67
2022/07/06 11:39:44;;;;;;;2.30;2.10;;;23.90;92.00;;;;;;6276120;27;82276;-68
2022/07/06 11:42:54;;;;;;;3.13;2.30;;;24.00;91.60;;;;;;6279269;27;81613;-68
2022/07/06 11:45:56;;;;;;;2.50;2.30;;;24.00;91.30;;;;;;6280134;27;82168;-68
2022/07/06 11:49:00;;;;;;;2.45;2.03;;;24.00;90.90;;;;;;6279016;27;82657;-68
2022/07/06 11:52:06;;;;;;;2.22;2.03;;;24.00;91.40;;;;;;6276177;27;81134;-68
2022/07/06 11:55:09;;;;;;;2.58;2.10;;;24.00;91.80;;;;;;6279294;27;82276;-68
2022/07/06 11:58:12;;;;;;;2.40;1.92;;;24.00;91.00;;;;;;6279743;27;82349;-68
2022/07/06 12:01:15;;;;;;;3.05;2.13;;;24.00;91.20;;;;;;6271163;27;82346;-67
2022/07/06 12:04:17;;;;;;;2.83;2.45;;;24.00;91.20;;;;;;6278690;27;82289;-68
2022/07/06 12:07:21;;;;;;;2.53;2.33;;;24.00;90.00;;;;;;6275629;27;82331;-67
2022/07/06 12:10:34;;;;;;;2.30;2.10;;;24.00;90.30;;;;;;6278758;27;81087;-67
2022/07/06 12:13:40;;;;;;;2.30;2.08;;;24.00;90.40;;;;;;6278136;27;82355;-67
2022/07/06 12:16:42;;;;;;;3.25;2.20;;;24.00;90.00;;;;;;6262685;27;82627;-67
2022/07/06 12:19:45;;;;;;;2.45;2.15;;;24.00;90.30;;;;;;6261520;27;81231;-67
2022/07/06 12:22:48;;;;;;;2.63;1.92;;;24.00;89.30;;;;;;6261520;27;82397;-67
2022/07/06 12:25:55;;;;;;;3.47;2.00;;;24.00;88.20;;;;;;6260904;27;81257;-68
2022/07/06 12:29:01;;;;;;;3.08;2.15;;;24.00;88.60;;;;;;6262558;27;82207;-67
2022/07/06 12:32:05;;;;;;;2.58;2.13;;;24.00;89.00;;;;;;6261272;27;82454;-68
2022/07/06 12:35:09;;;;;;;2.40;2.08;;;24.00;88.30;;;;;;6260078;27;82173;-67
2022/07/06 12:38:12;;;;;;;2.00;1.80;;;24.00;89.00;;;;;;6261878;27;82425;-68
2022/07/06 12:41:32;;;;;;;2.55;1.95;;;24.00;86.90;;;;;;6261524;27;82278;-67
2022/07/06 12:44:43;;;;;;;2.65;2.00;;;24.00;87.30;;;;;;6261988;27;82580;-67
2022/07/06 12:47:59;;;;;;;2.30;1.98;;;23.90;86.20;;;;;;6261256;27;81281;-67
2022/07/06 12:51:01;;;;;;;3.13;2.10;;;24.00;86.80;;;;;;6257692;27;82069;-67
2022/07/06 12:54:17;;;;;;;2.50;1.90;;;23.90;86.40;;;;;;6261599;27;82389;-67
2022/07/06 12:57:23;;;;;;;2.45;2.10;;;24.00;85.70;;;;;;6260971;27;82304;-68
2022/07/06 13:00:25;;;;;;;3.42;2.30;;;23.90;86.20;;;;;;6260396;27;81084;-68
2022/07/06 13:03:28;;;;;;;4.07;2.55;;;24.00;86.40;;;;;;6260628;27;82269;-67
2022/07/06 13:06:34;;;;;;;3.47;2.50;;;23.90;86.10;;;;;;6262130;27;81240;-68
2022/07/06 13:09:38;;;;;;;3.10;2.28;;;24.00;85.90;;;;;;6255241;27;82319;-68
2022/07/06 13:12:40;;;;;;;2.55;2.10;;;24.00;85.90;;;;;;6260809;27;82331;-67
2022/07/06 13:15:43;;;;;;;2.63;2.20;;;24.00;85.20;;;;;;6261503;27;82252;-68
2022/07/06 13:18:45;;;;;;;2.63;2.22;;;24.00;84.60;;;;;;6251041;27;82180;-68
2022/07/06 13:21:47;;;;;;;3.42;2.40;;;24.00;84.40;;;;;;6260181;27;82294;-68
2022/07/06 13:24:51;;;;;;;2.38;2.00;;;24.00;84.10;;;;;;6261090;27;82334;-68
2022/07/06 13:27:53;;;;;;;2.20;2.00;;;24.00;84.00;;;;;;6261039;27;82314;-67
2022/07/06 13:30:55;;;;;;;4.18;2.13;;;24.00;83.90;;;;;;6259938;27;82298;-68
2022/07/06 13:33:57;;;;;;;2.55;1.95;;;24.00;82.50;;;;;;6260005;27;82394;-68
2022/07/06 13:36:59;;;;;;;2.28;2.05;;;24.00;82.80;;;;;;6261897;27;82257;-68
2022/07/06 13:40:03;;;;;;;2.90;1.90;;;24.00;82.50;;;;;;6259038;27;82272;-68
2022/07/06 13:43:05;;;;;;;4.10;2.13;;;24.00;82.30;;;;;;6260389;27;81259;-67
2022/07/06 13:46:10;;;;;;;2.15;1.88;;;24.00;82.00;;;;;;6259945;27;82363;-68
2022/07/06 13:49:13;;;;;;;2.30;2.10;;;24.00;82.90;;;;;;6260692;27;82245;-67
2022/07/06 13:52:15;;;;;;;4.97;2.45;;;24.00;82.70;;;;;;6259583;27;82397;-68
2022/07/06 13:55:18;;;;;;;4.00;2.65;;;24.00;81.80;;;;;;6260869;27;82235;-68
2022/07/06 13:58:21;;;;;;;3.95;2.40;;;24.00;82.00;;;;;;6260109;27;82288;-68
2022/07/06 14:01:23;;;;;;;2.75;2.17;;;24.00;82.80;;;;;;6260232;27;82316;-68
2022/07/06 14:04:25;;;;;;;2.33;2.10;;;24.00;83.20;;;;;;6259235;27;82353;-68
2022/07/06 14:07:28;;;;;;;2.45;2.22;;;24.00;83.50;;;;;;6257468;27;81257;-68
2022/07/06 14:10:31;;;;;;;3.38;2.40;;;24.00;83.80;;;;;;6258791;27;82341;-68
2022/07/06 14:13:33;;;;;;;3.17;2.30;;;24.00;84.80;;;;;;6258503;27;82268;-68
2022/07/06 14:16:36;;;;;;;3.47;2.30;;;24.00;84.00;;;;;;6258803;27;82247;-68
2022/07/06 14:19:38;;;;;;;4.68;2.30;;;24.00;84.40;;;;;;6259841;27;82267;-68
2022/07/06 14:22:40;;;;;;;2.30;2.10;;;24.10;84.50;;;;;;6259265;28;82346;-68
2022/07/06 14:25:44;;;;;;;2.67;2.05;;;24.00;84.40;;;;;;6259736;27;82327;-68
2022/07/06 14:28:46;;;;;;;4.03;2.20;;;24.00;84.40;;;;;;6258829;27;82209;-67
2022/07/06 14:31:48;;;;;;;3.13;2.10;;;24.00;84.40;;;;;;6260529;28;82463;-68
2022/07/06 14:34:50;;;;;;;2.35;2.08;;;24.00;84.00;;;;;;6260407;27;82284;-68
2022/07/06 14:37:52;;;;;;;2.67;2.28;;;24.00;83.10;;;;;;6258604;27;81287;-68
2022/07/06 14:40:56;;;;;;;2.65;2.40;;;24.10;83.40;;;;;;6257216;27;82551;-68
2022/07/06 14:43:58;;;;;;;2.95;2.13;;;24.00;83.30;;;;;;6259658;27;82299;-68
2022/07/06 14:47:00;;;;;;;2.80;2.30;;;24.10;82.60;;;;;;6258027;27;82318;-68
2022/07/06 14:50:03;;;;;;;2.70;1.95;;;24.10;82.40;;;;;;6259028;27;82418;-67
2022/07/06 14:53:05;;;;;;;2.63;2.17;;;24.00;82.30;;;;;;6259032;27;81526;-68
2022/07/06 14:56:09;;;;;;;2.67;1.98;;;24.00;81.30;;;;;;6260878;27;82344;-68
2022/07/06 14:59:11;;;;;;;2.53;2.30;;;24.10;81.30;;;;;;6259128;27;84139;-68
2022/07/06 15:02:13;;;;;;;2.28;2.08;;;24.10;81.20;;;;;;6258296;27;82391;-68
2022/07/06 15:05:15;;;;;;;2.50;2.30;;;24.10;81.00;;;;;;6258143;27;81494;-68
2022/07/06 15:08:17;;;;;;;2.10;2.00;;;24.10;81.20;;;;;;6258610;27;82351;-68
2022/07/06 15:11:21;;;;;;;2.92;2.22;;;24.10;81.30;;;;;;6259053;27;81379;-68
2022/07/06 15:14:24;;;;;;;4.20;2.20;;;24.10;81.10;;;;;;6258159;27;82630;-67
2022/07/06 15:17:27;;;;;;;5.43;2.20;;;24.00;80.90;;;;;;6258479;27;82184;-68
2022/07/06 15:20:29;;;;;;;2.35;2.15;;;24.10;80.80;;;;;;6248860;27;81160;-67
2022/07/06 15:23:31;;;;;;;2.30;2.10;;;24.10;81.40;;;;;;6259465;27;82294;-67
2022/07/06 15:26:34;;;;;;;2.90;2.38;;;24.10;81.70;;;;;;6254214;27;82466;-68
2022/07/06 15:29:36;;;;;;;2.20;1.83;;;24.10;81.80;;;;;;6257522;27;81383;-68
2022/07/06 15:32:39;;;;;;;2.30;2.10;;;24.00;81.70;;;;;;6258702;27;82399;-68
2022/07/06 15:35:41;;;;;;;2.35;2.15;;;24.10;81.00;;;;;;6257936;27;82351;-68
2022/07/06 15:38:43;;;;;;;3.20;2.45;;;24.10;81.30;;;;;;6258029;27;82397;-68
2022/07/06 15:41:46;;;;;;;3.83;2.50;;;24.10;81.60;;;;;;6258672;27;82403;-68
2022/07/06 15:44:51;;;;;;;3.95;2.30;;;24.10;82.30;;;;;;6257479;27;82208;-67
2022/07/06 15:47:53;;;;;;;2.50;2.30;;;24.10;81.80;;;;;;6255860;27;82397;-67
2022/07/06 15:50:56;;;;;;;4.38;2.22;;;24.10;82.50;;;;;;6257989;27;82345;-68
2022/07/06 15:53:58;;;;;;;3.22;2.38;;;24.10;82.20;;;;;;6261374;27;82367;-68
2022/07/06 15:57:01;;;;;;;3.17;2.25;;;24.10;82.90;;;;;;6261247;27;82294;-68
2022/07/06 16:00:05;;;;;;;3.22;2.60;;;24.10;82.80;;;;;;6262439;27;82439;-68
2022/07/06 16:03:07;;;;;;;3.67;2.80;;;24.10;83.50;;;;;;6261257;27;81991;-68
2022/07/06 16:06:10;;;;;;;2.75;2.38;;;24.10;83.80;;;;;;6264037;27;82176;-69